createdAt,value
2024-04-17T00:01:25.095Z,2.00
2024-04-17T00:05:27.659Z,2.10
2024-04-17T00:09:35.683Z,2.30
2024-04-17T00:13:41.003Z,2.40
2024-04-17T00:17:46.359Z,2.50
2024-04-17T00:21:51.593Z,2.60
2024-04-17T00:25:59.631Z,2.60
2024-04-17T00:30:05.190Z,2.50
2024-04-17T00:34:12.133Z,2.60
2024-04-17T00:38:17.578Z,2.50
2024-04-17T00:42:27.823Z,2.30
2024-04-17T00:46:33.631Z,2.10
2024-04-17T00:50:39.323Z,2.10
2024-04-17T00:54:44.639Z,2.20
2024-04-17T00:58:53.085Z,2.30
2024-04-17T01:02:58.512Z,2.30
2024-04-17T01:07:04.149Z,2.40
2024-04-17T01:11:10.096Z,2.40
2024-04-17T01:15:20.855Z,2.50
2024-04-17T01:19:27.395Z,2.40
2024-04-17T01:23:32.656Z,2.20
2024-04-17T01:27:40.936Z,2.00
2024-04-17T01:31:46.245Z,1.90
2024-04-17T01:35:51.573Z,1.90
2024-04-17T01:39:54.106Z,1.80
2024-04-17T01:44:02.041Z,1.60
2024-04-17T01:48:07.964Z,1.50
2024-04-17T01:52:13.263Z,1.40
2024-04-17T01:56:18.711Z,1.50
2024-04-17T02:00:26.652Z,1.30
2024-04-17T02:04:29.202Z,1.10
2024-04-17T02:08:34.378Z,1.10
2024-04-17T02:12:39.726Z,1.10
2024-04-17T02:16:47.785Z,1.10
2024-04-17T02:20:53.120Z,1.10
2024-04-17T02:24:58.439Z,1.00
2024-04-17T02:29:03.804Z,0.90
2024-04-17T02:33:12.015Z,0.90
2024-04-17T02:37:17.301Z,0.90
2024-04-17T02:41:22.629Z,0.90
2024-04-17T02:45:28.065Z,0.70
2024-04-17T02:49:36.108Z,0.60
2024-04-17T02:53:41.511Z,0.70
2024-04-17T02:57:46.701Z,0.50
2024-04-17T03:01:52.091Z,0.50
2024-04-17T03:06:04.139Z,0.50
2024-04-17T03:10:09.842Z,0.60
2024-04-17T03:14:15.418Z,0.70
2024-04-17T03:18:20.853Z,1.00
2024-04-17T03:22:28.901Z,1.00
2024-04-17T03:26:34.170Z,1.20
2024-04-17T03:30:39.410Z,1.30
2024-04-17T03:34:44.744Z,1.50
2024-04-17T03:38:52.741Z,1.60
2024-04-17T03:42:58.040Z,1.70
2024-04-17T03:47:03.462Z,2.00
2024-04-17T03:51:09.306Z,1.80
2024-04-17T03:55:17.453Z,1.80
2024-04-17T03:59:22.857Z,2.00
2024-04-17T04:03:28.186Z,2.10
2024-04-17T04:07:33.540Z,2.30
2024-04-17T04:11:41.775Z,2.40
2024-04-17T04:15:54.500Z,2.40
2024-04-17T04:19:59.728Z,2.50
2024-04-17T04:24:05.013Z,2.60
2024-04-17T04:28:13.077Z,2.50
2024-04-17T04:32:18.451Z,2.60
2024-04-17T04:36:26.827Z,2.40
2024-04-17T04:40:32.828Z,2.60
2024-04-17T04:44:41.074Z,2.70
2024-04-17T04:48:46.392Z,2.80
2024-04-17T04:52:51.695Z,3.00
2024-04-17T04:56:57.593Z,2.70
2024-04-17T05:01:08.751Z,2.90
2024-04-17T05:05:24.803Z,3.10
2024-04-17T05:09:32.287Z,3.00
2024-04-17T05:13:44.378Z,3.00
2024-04-17T05:17:58.043Z,3.10
2024-04-17T05:22:03.616Z,3.30
2024-04-17T05:26:09.261Z,3.50
2024-04-17T05:30:12.752Z,3.30
2024-04-17T05:34:21.894Z,3.40
2024-04-17T05:38:27.131Z,3.40
2024-04-17T05:42:32.378Z,3.50
2024-04-17T05:50:50.884Z,3.60
2024-04-17T05:54:56.008Z,3.70
2024-04-17T05:59:01.228Z,3.70
2024-04-17T06:03:06.927Z,3.80
2024-04-17T06:07:14.769Z,4.00
2024-04-17T06:11:20.078Z,4.10
2024-04-17T06:15:25.429Z,4.20
2024-04-17T06:19:31.554Z,4.20
2024-04-17T06:23:40.132Z,4.30
2024-04-17T06:27:45.305Z,4.50
2024-04-17T06:31:50.559Z,4.70
2024-04-17T06:35:55.529Z,4.90
2024-04-17T06:40:06.414Z,5.10
2024-04-17T06:44:11.821Z,5.30
2024-04-17T06:48:17.379Z,5.40
2024-04-17T06:52:23.397Z,5.50
2024-04-17T06:56:31.366Z,5.60
2024-04-17T07:00:37.905Z,5.80
2024-04-17T07:04:43.484Z,5.80
2024-04-17T07:08:48.655Z,6.10
2024-04-17T07:12:58.878Z,6.30
2024-04-17T07:17:04.324Z,6.60
2024-04-17T07:21:11.365Z,6.60
2024-04-17T07:25:18.683Z,6.70
2024-04-17T07:29:26.810Z,6.90
2024-04-17T07:33:32.016Z,7.20
2024-04-17T07:37:37.270Z,7.50
2024-04-17T07:41:42.538Z,7.90
2024-04-17T07:45:55.009Z,8.00
2024-04-17T07:50:00.387Z,8.00
2024-04-17T07:54:05.652Z,8.20
2024-04-17T07:58:11.667Z,8.50
2024-04-17T08:02:19.517Z,9.00
2024-04-17T08:06:24.914Z,9.30
2024-04-17T08:10:30.160Z,9.10
2024-04-17T08:14:35.374Z,8.70
2024-04-17T08:18:43.228Z,8.60
2024-04-17T08:22:48.470Z,8.70
2024-04-17T08:26:53.609Z,8.80
2024-04-17T08:30:58.827Z,9.40
2024-04-17T08:35:06.974Z,9.70
2024-04-17T08:39:12.278Z,10.60
2024-04-17T08:43:28.876Z,11.40
2024-04-17T08:52:18.082Z,11.90
2024-04-17T08:56:24.392Z,12.20
2024-04-17T09:00:30.975Z,11.80
2024-04-17T09:04:36.307Z,11.40
2024-04-17T09:08:45.590Z,11.10
2024-04-17T09:12:51.121Z,10.80
2024-04-17T09:16:56.992Z,10.60
2024-04-17T09:21:02.255Z,10.40
2024-04-17T09:25:16.158Z,10.20
2024-04-17T09:29:21.516Z,10.20
2024-04-17T09:33:26.801Z,10.70
2024-04-17T09:37:32.271Z,12.00
2024-04-17T09:41:46.463Z,14.00
2024-04-17T09:45:59.451Z,13.50
2024-04-17T09:50:06.476Z,12.80
2024-04-17T09:54:15.299Z,12.30
2024-04-17T09:58:23.972Z,12.30
2024-04-17T10:02:30.839Z,12.80
2024-04-17T10:06:39.322Z,13.80
2024-04-17T10:10:46.119Z,14.10
2024-04-17T10:14:54.939Z,13.60
2024-04-17T10:19:02.569Z,13.40
2024-04-17T10:23:09.496Z,12.70
2024-04-17T10:27:20.067Z,13.00
2024-04-17T10:55:17.293Z,18.40
2024-04-17T10:59:30.787Z,17.70
2024-04-17T11:03:36.353Z,15.40
2024-04-17T11:07:41.712Z,13.80
2024-04-17T11:11:51.613Z,13.40
2024-04-17T11:15:57.557Z,15.10
2024-04-17T11:20:05.645Z,15.80
2024-04-17T11:41:53.148Z,16.60
2024-04-17T11:45:58.560Z,19.80
2024-04-17T11:50:04.051Z,18.60
2024-04-17T11:54:09.530Z,15.00
2024-04-17T11:58:20.834Z,14.70
2024-04-17T12:02:28.602Z,14.20
2024-04-17T12:07:25.220Z,14.50
2024-04-17T12:11:42.366Z,18.30
2024-04-17T12:15:50.783Z,19.60
2024-04-17T12:19:56.538Z,16.80
2024-04-17T12:24:07.270Z,16.70
2024-04-17T12:28:10.698Z,17.30
2024-04-17T12:32:20.043Z,18.30
2024-04-17T12:36:26.120Z,17.10
2024-04-17T12:40:31.416Z,15.80
2024-04-17T12:44:37.847Z,15.40
2024-04-17T12:48:47.027Z,14.70
2024-04-17T12:52:54.246Z,14.70
2024-04-17T12:56:59.731Z,14.80
2024-04-17T13:01:06.987Z,14.50
2024-04-17T13:05:15.115Z,14.60
2024-04-17T13:09:36.045Z,14.90
2024-04-17T13:13:41.393Z,15.00
2024-04-17T13:17:46.963Z,16.00
2024-04-17T13:21:54.942Z,18.70
2024-04-17T13:26:01.179Z,20.10
2024-04-17T13:30:07.698Z,20.80
2024-04-17T13:34:13.658Z,21.30
2024-04-17T13:38:21.541Z,24.20
2024-04-17T13:42:27.091Z,20.80
2024-04-17T13:46:34.360Z,20.90
2024-04-17T13:50:39.794Z,24.40
2024-04-17T13:54:47.662Z,22.20
2024-04-17T13:58:53.478Z,19.90
2024-04-17T14:03:00.020Z,17.70
2024-04-17T14:07:07.264Z,15.10
2024-04-17T14:11:16.748Z,13.40
2024-04-17T14:15:22.486Z,13.00
2024-04-17T14:19:28.142Z,12.60
2024-04-17T14:23:33.598Z,12.50
2024-04-17T14:27:41.638Z,12.90
2024-04-17T14:31:47.029Z,14.40
2024-04-17T14:35:53.444Z,17.20
2024-04-17T14:39:58.746Z,19.90
2024-04-17T14:44:06.864Z,19.70
2024-04-17T14:48:12.238Z,17.80
2024-04-17T14:52:19.198Z,16.60
2024-04-17T14:56:25.564Z,15.40
2024-04-17T15:00:35.229Z,15.10
2024-04-17T15:04:41.332Z,14.70
2024-04-17T15:08:55.367Z,14.50
2024-04-17T15:13:41.018Z,14.60
2024-04-17T15:17:52.932Z,14.70
2024-04-17T15:22:00.332Z,14.40
2024-04-17T15:26:09.827Z,14.10
2024-04-17T15:30:16.190Z,14.00
2024-04-17T15:40:01.361Z,14.60
2024-04-17T15:44:08.025Z,14.00
2024-04-17T15:48:14.981Z,14.20
2024-04-17T15:52:20.937Z,14.30
2024-04-17T15:56:30.009Z,14.00
2024-04-17T16:00:33.329Z,13.70
2024-04-17T16:04:39.693Z,13.50
2024-04-17T16:08:47.956Z,13.10
2024-04-17T16:12:57.360Z,12.60
2024-04-17T16:17:03.070Z,12.20
2024-04-17T16:21:24.900Z,12.10
2024-04-17T16:25:34.263Z,12.10
2024-04-17T16:29:46.345Z,11.90
2024-04-17T16:33:53.546Z,11.70
2024-04-17T16:37:59.927Z,11.60
2024-04-17T16:42:07.722Z,11.40
2024-04-17T16:46:17.667Z,11.40
2024-04-17T16:50:25.868Z,11.30
2024-04-17T16:54:31.537Z,11.20
2024-04-17T16:58:43.335Z,11.00
2024-04-17T17:02:54.793Z,10.90
2024-04-17T17:07:01.601Z,10.60
2024-04-17T17:11:07.473Z,10.40
2024-04-17T17:15:12.833Z,10.30
2024-04-17T17:19:22.799Z,10.10
2024-04-17T17:23:29.948Z,10.00
2024-04-17T17:27:38.544Z,9.90
2024-04-17T17:31:49.742Z,9.80
2024-04-17T17:36:19.544Z,9.60
2024-04-17T17:40:25.261Z,9.50
2024-04-17T17:44:35.743Z,9.40
2024-04-17T17:48:45.293Z,9.40
2024-04-17T17:53:02.670Z,9.30
2024-04-17T17:57:12.124Z,8.90
2024-04-17T18:01:20.953Z,8.50
2024-04-17T18:05:30.030Z,8.30
2024-04-17T18:09:39.100Z,8.00
2024-04-17T18:13:44.448Z,8.10
2024-04-17T18:17:49.714Z,7.90
2024-04-17T18:21:55.720Z,7.90
2024-04-17T18:26:10.878Z,7.70
2024-04-17T18:30:16.721Z,7.90
2024-04-17T18:34:24.685Z,7.90
2024-04-17T18:38:30.059Z,7.70
2024-04-17T18:42:39.891Z,7.70
2024-04-17T18:46:48.236Z,7.60
2024-04-17T18:50:54.844Z,7.50
2024-04-17T18:55:00.672Z,7.50
2024-04-17T18:59:11.233Z,7.40
2024-04-17T19:03:18.053Z,7.40
2024-04-17T19:07:23.457Z,7.30
2024-04-17T19:11:30.233Z,7.30
2024-04-17T19:15:39.675Z,7.40
2024-04-17T19:19:48.686Z,7.30
2024-04-17T19:23:57.087Z,7.20
2024-04-17T19:28:02.910Z,7.20
2024-04-17T19:32:11.985Z,7.10
2024-04-17T19:36:19.012Z,7.00
2024-04-17T19:40:25.064Z,7.10
2024-04-17T19:44:30.283Z,7.20
2024-04-17T19:48:44.094Z,7.20
2024-04-17T19:52:49.527Z,7.20
2024-04-17T19:56:59.638Z,7.00
2024-04-17T20:01:11.273Z,7.00
2024-04-17T20:05:23.579Z,7.10
2024-04-17T20:09:31.678Z,7.00
2024-04-17T20:13:38.463Z,7.10
2024-04-17T20:17:45.019Z,7.00
2024-04-17T20:21:53.936Z,7.10
2024-04-17T20:26:08.094Z,7.00
2024-04-17T20:30:16.037Z,6.90
2024-04-17T20:34:24.387Z,6.90
2024-04-17T20:38:35.479Z,6.80
2024-04-17T20:42:43.671Z,6.80
2024-04-17T20:46:49.683Z,6.80
2024-04-17T20:50:56.485Z,6.80
2024-04-17T20:55:06.635Z,6.60
2024-04-17T20:59:09.924Z,6.50
2024-04-17T21:03:15.224Z,6.70
2024-04-17T21:07:20.507Z,6.70
2024-04-17T21:11:28.700Z,6.60
2024-04-17T21:15:34.069Z,6.70
2024-04-17T21:19:40.002Z,6.80
2024-04-17T21:23:46.235Z,6.60
2024-04-17T21:27:54.619Z,6.50
2024-04-17T21:32:06.476Z,6.50
2024-04-17T21:36:12.906Z,6.70
2024-04-17T21:40:20.899Z,6.60
2024-04-17T21:44:28.723Z,6.60
2024-04-17T21:48:34.180Z,6.70
2024-04-17T21:52:39.972Z,6.60
2024-04-17T21:56:46.527Z,6.70
2024-04-17T22:00:55.697Z,6.70
2024-04-17T22:05:00.955Z,6.60
2024-04-17T22:09:06.518Z,6.60
2024-04-17T22:13:11.915Z,6.50
2024-04-17T22:17:20.840Z,6.50
2024-04-17T22:21:26.044Z,6.70
2024-04-17T22:25:31.215Z,6.80
2024-04-17T22:29:37.775Z,6.70
2024-04-17T22:33:46.672Z,6.90
2024-04-17T22:37:49.237Z,7.20
2024-04-17T22:41:55.091Z,7.40
2024-04-17T22:46:00.236Z,7.50
2024-04-17T22:50:09.827Z,7.50
2024-04-17T22:54:15.038Z,7.50
2024-04-17T22:58:20.834Z,7.30
2024-04-17T23:02:23.820Z,7.30
2024-04-17T23:06:31.648Z,6.90
2024-04-17T23:10:37.144Z,6.60
2024-04-17T23:14:45.073Z,6.50
2024-04-17T23:18:50.680Z,6.40
2024-04-17T23:22:58.598Z,6.40
2024-04-17T23:27:04.083Z,6.10
2024-04-17T23:31:09.234Z,5.90
2024-04-17T23:35:14.421Z,5.90
2024-04-17T23:39:23.637Z,5.80
2024-04-17T23:43:29.362Z,5.60
2024-04-17T23:47:34.622Z,5.40
2024-04-17T23:51:40.066Z,5.30
2024-04-17T23:55:48.497Z,5.10
2024-04-17T23:59:57.896Z,4.80
